Terminal Aerodrome Forecast
Issued by NWS Medford, OR

Home | Current Version | Previous Version | Text Only | Print | Product List | Glossary On
Versions: 1 2 3 4 5 6 7 8 9 10 11 12 13 14 15 16 17
641
FTUS46 KMFR 131225 AAB
TAFMFR
TAF AMD
KMFR 131225Z 1312/1412 00000KT 1/4SM FG VV002 BKN040
     FM131800 VRB03KT 3SM BR BKN004
     FM131900 VRB03KT P6SM SCT008
     FM140400 VRB03KT P6SM -RA BKN040 OVC070=

USA.gov is the U.S. government's official web portal to all federal, state and local government web resources and services.